Deline, Canada
Current Conditions -  °F | °C
As of 5:00 PM on Friday 31 Oct 2014 (Local Time) from CYWJ Reporting Station
Light Snow Light Snow  
Wind Chill:   Ceiling: 2000
Heat Index: 16°   Visibility: 1.5mi
Dew Point: 12°   Wind: 17mph
Humidity: 86%   Direction: 280°W
Pressure: 29.24"   Gusts: 26mph
Location:  65.18°N, 123.42°W
Report Text: CYWJ 312300Z 28015G23KT 1 1/2SM -SN FEW006 BKN020 OVC080 M09/M11 A2924 RMK ST2SC4AC2 -0.4/-10.0/0.6/14 MUCH LOOSE LAST OB/NEXT 011300UTC SLP920
Loading
Personal Weather Stations






























Interactive Weather Map
Tropical Storm Tracking
New forecast layout! Learn more

10-Day Weather Forecast

Advertisements
Track Severe Weather on mobile